Palmer Park, Maryland
Current Conditions -  °F | °C
As of 4:30 AM on Saturday 20 Dec 2014 (Local Time) from KCGS Reporting Station
Clear Clear  
Wind Chill: -3°   Ceiling: Unl
Heat Index: -3°   Visibility: 10mi
Dew Point: -5°   Wind: 0mph
Humidity: 86%   Direction: NA
Pressure: 30.26"   Gusts: NA
Location:  38.9183°N, 76.8721°W
Report Text: KCGS 200930Z AUTO 00000KT 10SM CLR M03/M05 A3026 RMK AO1
Loading
Personal Weather Stations






























Interactive Weather Map New forecast layout! Learn more

10-Day Weather Forecast

Advertisements
Track Severe Weather on mobile